EUS25EF EGPF-BGGH
Flight info
| Callsign | EUS25EF |
|---|---|
| Flight time | 4h 2m |
| Altitude | 36000 |
| Route | CLYDE DCT BRUCE DCT EVNAL/M076F360 DCT 60N017W 62N027W/M077F380 63N038W DCT EVULO |
| Aircraft | A320/M-SDE3FGHIRWY/LB1 |
Departure
| Time | 2026-04-29 13:03 |
|---|---|
| Airport | Glasgow Airport (EGPF) |
Arrival
| Time | 2026-04-29 17:05 |
|---|---|
| Airport | Nuuk International Airport (BGGH) |
| Time | Latitude | Longitude | Altitude | Speed | Heading |
|---|---|---|---|---|---|
| 2026-04-29 12:16 | 55.86640 | -4.43730 | 29 ft | 0 kts | 253° |
| 2026-04-29 12:56 | 55.86641 | -4.43722 | 29 ft | 3 kts | 253° |
| 2026-04-29 12:56 | 55.86649 | -4.43677 | 29 ft | 4 kts | 253° |
| 2026-04-29 12:56 | 55.86655 | -4.43631 | 29 ft | 4 kts | 269° |
| 2026-04-29 12:57 | 55.86650 | -4.43587 | 29 ft | 4 kts | 316° |
| 2026-04-29 12:57 | 55.86641 | -4.43575 | 29 ft | 0 kts | 346° |
| 2026-04-29 12:59 | 55.86673 | -4.43590 | 30 ft | 8 kts | 345° |
| 2026-04-29 12:59 | 55.86728 | -4.43630 | 30 ft | 8 kts | 319° |
| 2026-04-29 13:00 | 55.86726 | -4.43756 | 28 ft | 14 kts | 244° |
| 2026-04-29 13:00 | 55.86661 | -4.43885 | 29 ft | 13 kts | 226° |
| 2026-04-29 13:00 | 55.86579 | -4.44038 | 31 ft | 19 kts | 226° |
| 2026-04-29 13:00 | 55.86494 | -4.44198 | 34 ft | 16 kts | 226° |
| 2026-04-29 13:01 | 55.86421 | -4.44334 | 33 ft | 15 kts | 227° |
| 2026-04-29 13:01 | 55.86353 | -4.44461 | 33 ft | 13 kts | 226° |
| 2026-04-29 13:01 | 55.86309 | -4.44542 | 30 ft | 14 kts | 225° |
| 2026-04-29 13:01 | 55.86251 | -4.44675 | 30 ft | 12 kts | 261° |
| 2026-04-29 13:02 | 55.86308 | -4.44803 | 33 ft | 7 kts | 318° |
| 2026-04-29 13:02 | 55.86352 | -4.44869 | 34 ft | 9 kts | 339° |
| 2026-04-29 13:02 | 55.86394 | -4.44818 | 33 ft | 0 kts | 45° |
| 2026-04-29 13:02 | 55.86396 | -4.44813 | 33 ft | 8 kts | 45° |
| 2026-04-29 13:03 | 55.86622 | -4.44392 | 38 ft | 82 kts | 46° |
| 2026-04-29 13:03 | 55.86959 | -4.43766 | 33 ft | 123 kts | 46° |
| 2026-04-29 13:03 | 55.87659 | -4.42455 | 109 ft | 163 kts | 48° |
| 2026-04-29 13:03 | 55.88414 | -4.41006 | 893 ft | 157 kts | 48° |
| 2026-04-29 13:04 | 55.89167 | -4.39604 | 1636 ft | 157 kts | 49° |
| 2026-04-29 13:04 | 55.89959 | -4.38144 | 2127 ft | 174 kts | 49° |
| 2026-04-29 13:04 | 55.90849 | -4.36480 | 2534 ft | 196 kts | 49° |
| 2026-04-29 13:04 | 55.91853 | -4.34604 | 2906 ft | 221 kts | 48° |
| 2026-04-29 13:05 | 55.93053 | -4.32654 | 3382 ft | 249 kts | 32° |
| 2026-04-29 13:05 | 55.94800 | -4.31967 | 4073 ft | 271 kts | 355° |
| 2026-04-29 13:05 | 55.96557 | -4.33243 | 4916 ft | 281 kts | 319° |
| 2026-04-29 13:05 | 55.97651 | -4.36102 | 5853 ft | 284 kts | 285° |
| 2026-04-29 13:06 | 55.97791 | -4.39587 | 6779 ft | 283 kts | 261° |
| 2026-04-29 13:06 | 55.97426 | -4.43044 | 7531 ft | 284 kts | 252° |
| 2026-04-29 13:06 | 55.96865 | -4.46483 | 8279 ft | 291 kts | 249° |
| 2026-04-29 13:06 | 55.96259 | -4.49971 | 9071 ft | 297 kts | 250° |
| 2026-04-29 13:07 | 55.95669 | -4.53535 | 9894 ft | 302 kts | 251° |
| 2026-04-29 13:07 | 55.95120 | -4.57135 | 10653 ft | 308 kts | 252° |
| 2026-04-29 13:07 | 55.94577 | -4.60969 | 11001 ft | 330 kts | 253° |
| 2026-04-29 13:07 | 55.94257 | -4.65170 | 11309 ft | 352 kts | 266° |
| 2026-04-29 13:08 | 55.94435 | -4.69590 | 11917 ft | 362 kts | 278° |
| 2026-04-29 13:08 | 55.95053 | -4.73985 | 12602 ft | 369 kts | 288° |
| 2026-04-29 13:08 | 55.96081 | -4.78214 | 13289 ft | 374 kts | 295° |
| 2026-04-29 13:08 | 55.97200 | -4.82436 | 13977 ft | 379 kts | 295° |
| 2026-04-29 13:09 | 55.98337 | -4.86718 | 14600 ft | 384 kts | 295° |
| 2026-04-29 13:09 | 55.99486 | -4.91040 | 15211 ft | 387 kts | 295° |
| 2026-04-29 13:09 | 56.00647 | -4.95408 | 15836 ft | 391 kts | 295° |
| 2026-04-29 13:09 | 56.01815 | -4.99813 | 16449 ft | 394 kts | 295° |
| 2026-04-29 13:10 | 56.02992 | -5.04268 | 17061 ft | 398 kts | 295° |
| 2026-04-29 13:10 | 56.04178 | -5.08766 | 17674 ft | 402 kts | 295° |
| 2026-04-29 13:10 | 56.05370 | -5.13302 | 18299 ft | 405 kts | 295° |
| 2026-04-29 13:10 | 56.06571 | -5.17888 | 18868 ft | 409 kts | 295° |
| 2026-04-29 13:11 | 56.07776 | -5.22510 | 19433 ft | 411 kts | 295° |
| 2026-04-29 13:11 | 56.08984 | -5.27154 | 19970 ft | 413 kts | 295° |
| 2026-04-29 13:11 | 56.10197 | -5.31828 | 20516 ft | 415 kts | 295° |
| 2026-04-29 13:11 | 56.11417 | -5.36526 | 21058 ft | 417 kts | 295° |
| 2026-04-29 13:12 | 56.12642 | -5.41250 | 21598 ft | 419 kts | 295° |
| 2026-04-29 13:12 | 56.13870 | -5.45995 | 22134 ft | 421 kts | 295° |
| 2026-04-29 13:12 | 56.15102 | -5.50760 | 22643 ft | 422 kts | 295° |
| 2026-04-29 13:12 | 56.16337 | -5.55549 | 23175 ft | 424 kts | 295° |
| 2026-04-29 13:13 | 56.17578 | -5.60367 | 23682 ft | 426 kts | 295° |
| 2026-04-29 13:13 | 56.18823 | -5.65206 | 24140 ft | 428 kts | 295° |
| 2026-04-29 13:13 | 56.20054 | -5.70009 | 24530 ft | 430 kts | 295° |
| 2026-04-29 13:13 | 56.21303 | -5.74907 | 24936 ft | 432 kts | 295° |
| 2026-04-29 13:14 | 56.22556 | -5.79833 | 25330 ft | 434 kts | 295° |
| 2026-04-29 13:14 | 56.23869 | -5.84727 | 25706 ft | 436 kts | 300° |
| 2026-04-29 13:14 | 56.25450 | -5.89390 | 26085 ft | 437 kts | 303° |
| 2026-04-29 13:14 | 56.27058 | -5.94049 | 26456 ft | 439 kts | 303° |
| 2026-04-29 13:15 | 56.28674 | -5.98731 | 26824 ft | 441 kts | 302° |
| 2026-04-29 13:15 | 56.30296 | -6.03436 | 27199 ft | 444 kts | 302° |
| 2026-04-29 13:15 | 56.31924 | -6.08171 | 27570 ft | 445 kts | 302° |
| 2026-04-29 13:15 | 56.33555 | -6.12931 | 27929 ft | 448 kts | 302° |
| 2026-04-29 13:16 | 56.35189 | -6.17724 | 28289 ft | 450 kts | 302° |
| 2026-04-29 13:16 | 56.36826 | -6.22539 | 28647 ft | 452 kts | 302° |
| 2026-04-29 13:16 | 56.38471 | -6.27385 | 28997 ft | 454 kts | 302° |
| 2026-04-29 13:16 | 56.40119 | -6.32249 | 29340 ft | 455 kts | 302° |
| 2026-04-29 13:17 | 56.41774 | -6.37146 | 29689 ft | 458 kts | 302° |
| 2026-04-29 13:17 | 56.43431 | -6.42067 | 30009 ft | 460 kts | 302° |
| 2026-04-29 13:17 | 56.45093 | -6.47013 | 30328 ft | 462 kts | 301° |
| 2026-04-29 13:17 | 56.46765 | -6.51985 | 30621 ft | 463 kts | 301° |
| 2026-04-29 13:18 | 56.48441 | -6.56969 | 30894 ft | 465 kts | 301° |
| 2026-04-29 13:18 | 56.50122 | -6.61977 | 31165 ft | 466 kts | 301° |
| 2026-04-29 13:18 | 56.51804 | -6.67000 | 31424 ft | 467 kts | 301° |
| 2026-04-29 13:18 | 56.53486 | -6.72042 | 31694 ft | 468 kts | 301° |
| 2026-04-29 13:19 | 56.55163 | -6.77082 | 32069 ft | 466 kts | 301° |
| 2026-04-29 13:19 | 56.56832 | -6.82114 | 32455 ft | 465 kts | 301° |
| 2026-04-29 13:19 | 56.58491 | -6.87135 | 32826 ft | 463 kts | 301° |
| 2026-04-29 13:19 | 56.60145 | -6.92141 | 33188 ft | 462 kts | 301° |
| 2026-04-29 13:20 | 56.61794 | -6.97137 | 33551 ft | 461 kts | 301° |
| 2026-04-29 13:20 | 56.63441 | -7.02126 | 33905 ft | 460 kts | 300° |
| 2026-04-29 13:20 | 56.65080 | -7.07106 | 34270 ft | 459 kts | 300° |
| 2026-04-29 13:20 | 56.66711 | -7.12078 | 34603 ft | 458 kts | 300° |
| 2026-04-29 13:21 | 56.68337 | -7.17042 | 34904 ft | 457 kts | 300° |
| 2026-04-29 13:21 | 56.69936 | -7.21932 | 35198 ft | 455 kts | 300° |
| 2026-04-29 13:21 | 56.71551 | -7.26888 | 35489 ft | 454 kts | 300° |
| 2026-04-29 13:21 | 56.73156 | -7.31830 | 35783 ft | 453 kts | 300° |
| 2026-04-29 13:22 | 56.74753 | -7.36767 | 36047 ft | 452 kts | 300° |
| 2026-04-29 13:22 | 56.76345 | -7.41697 | 36310 ft | 451 kts | 300° |
| 2026-04-29 13:22 | 56.77936 | -7.46627 | 36427 ft | 450 kts | 300° |
| 2026-04-29 13:23 | 56.81083 | -7.56399 | 36441 ft | 445 kts | 300° |
| 2026-04-29 13:23 | 56.84214 | -7.66121 | 36443 ft | 444 kts | 300° |
| 2026-04-29 13:24 | 56.87327 | -7.75850 | 36438 ft | 443 kts | 300° |
| 2026-04-29 13:24 | 56.90422 | -7.85589 | 36435 ft | 443 kts | 299° |
| 2026-04-29 13:25 | 56.93508 | -7.95338 | 36437 ft | 442 kts | 299° |
| 2026-04-29 13:25 | 56.98121 | -8.09963 | 36439 ft | 442 kts | 299° |
| 2026-04-29 13:26 | 57.01184 | -8.19722 | 36433 ft | 441 kts | 299° |
| 2026-04-29 13:26 | 57.04231 | -8.29500 | 36437 ft | 441 kts | 298° |
| 2026-04-29 13:27 | 57.07279 | -8.39273 | 36433 ft | 441 kts | 298° |
| 2026-04-29 13:27 | 57.10319 | -8.49060 | 36437 ft | 441 kts | 298° |
| 2026-04-29 13:28 | 57.13349 | -8.58858 | 36436 ft | 440 kts | 298° |
| 2026-04-29 13:28 | 57.16364 | -8.68679 | 36436 ft | 440 kts | 298° |
| 2026-04-29 13:29 | 57.19348 | -8.78448 | 36438 ft | 440 kts | 298° |
| 2026-04-29 13:29 | 57.22348 | -8.88279 | 36437 ft | 440 kts | 298° |
| 2026-04-29 13:30 | 57.25343 | -8.98133 | 36437 ft | 440 kts | 297° |
| 2026-04-29 13:30 | 57.28319 | -9.08001 | 36439 ft | 440 kts | 297° |
| 2026-04-29 13:31 | 57.31293 | -9.17878 | 36437 ft | 439 kts | 297° |
| 2026-04-29 13:31 | 57.34253 | -9.27768 | 36432 ft | 439 kts | 297° |
| 2026-04-29 13:32 | 57.37202 | -9.37665 | 36434 ft | 439 kts | 297° |
| 2026-04-29 13:32 | 57.40143 | -9.47559 | 36431 ft | 438 kts | 297° |
| 2026-04-29 13:33 | 57.43621 | -9.56859 | 36428 ft | 439 kts | 305° |
| 2026-04-29 13:33 | 57.47271 | -9.65952 | 36425 ft | 439 kts | 304° |
| 2026-04-29 13:34 | 57.50914 | -9.75051 | 36425 ft | 438 kts | 304° |
| 2026-04-29 13:34 | 57.54549 | -9.84157 | 36421 ft | 438 kts | 304° |
| 2026-04-29 13:35 | 57.58162 | -9.93280 | 36416 ft | 437 kts | 304° |
| 2026-04-29 13:35 | 57.61762 | -10.02415 | 36417 ft | 437 kts | 304° |
| 2026-04-29 13:36 | 57.65351 | -10.11566 | 36414 ft | 437 kts | 304° |
| 2026-04-29 13:36 | 57.68935 | -10.20708 | 36412 ft | 436 kts | 304° |
| 2026-04-29 13:37 | 57.72519 | -10.29855 | 36410 ft | 435 kts | 303° |
| 2026-04-29 13:37 | 57.76062 | -10.38950 | 36409 ft | 435 kts | 303° |
| 2026-04-29 13:38 | 57.79607 | -10.48118 | 36407 ft | 434 kts | 303° |
| 2026-04-29 13:38 | 57.83143 | -10.57294 | 36403 ft | 434 kts | 303° |
| 2026-04-29 13:39 | 57.86674 | -10.66470 | 36396 ft | 433 kts | 303° |
| 2026-04-29 13:39 | 57.90196 | -10.75664 | 36400 ft | 433 kts | 302° |
| 2026-04-29 13:40 | 57.93711 | -10.84877 | 36394 ft | 433 kts | 302° |
| 2026-04-29 13:40 | 57.97212 | -10.94105 | 36398 ft | 433 kts | 302° |
| 2026-04-29 13:41 | 58.00712 | -11.03336 | 36400 ft | 433 kts | 302° |
| 2026-04-29 13:41 | 58.04202 | -11.12577 | 36402 ft | 432 kts | 302° |
| 2026-04-29 13:42 | 58.07682 | -11.21823 | 36405 ft | 432 kts | 302° |
| 2026-04-29 13:42 | 58.11152 | -11.31085 | 36401 ft | 431 kts | 302° |
| 2026-04-29 13:43 | 58.14609 | -11.40352 | 36398 ft | 431 kts | 301° |
| 2026-04-29 13:43 | 58.18059 | -11.49634 | 36400 ft | 431 kts | 301° |
| 2026-04-29 13:44 | 58.21491 | -11.58933 | 36396 ft | 430 kts | 301° |
| 2026-04-29 13:44 | 58.24914 | -11.68245 | 36391 ft | 430 kts | 301° |
| 2026-04-29 13:45 | 58.28333 | -11.77562 | 36395 ft | 430 kts | 301° |
| 2026-04-29 13:45 | 58.31749 | -11.86887 | 36382 ft | 430 kts | 301° |
| 2026-04-29 13:46 | 58.35150 | -11.96234 | 36387 ft | 429 kts | 301° |
| 2026-04-29 13:46 | 58.38518 | -12.05538 | 36387 ft | 429 kts | 300° |
| 2026-04-29 13:47 | 58.41902 | -12.14916 | 36384 ft | 429 kts | 300° |
| 2026-04-29 13:47 | 58.45289 | -12.24300 | 36377 ft | 429 kts | 300° |
| 2026-04-29 13:48 | 58.48667 | -12.33703 | 36379 ft | 429 kts | 300° |
| 2026-04-29 13:48 | 58.52030 | -12.43125 | 36374 ft | 429 kts | 300° |
| 2026-04-29 13:49 | 58.55385 | -12.52567 | 36371 ft | 429 kts | 300° |
| 2026-04-29 13:49 | 58.58731 | -12.62026 | 36367 ft | 429 kts | 300° |
| 2026-04-29 13:50 | 58.62079 | -12.71492 | 36365 ft | 429 kts | 300° |
| 2026-04-29 13:50 | 58.65419 | -12.80976 | 36365 ft | 429 kts | 300° |
| 2026-04-29 13:51 | 58.68742 | -12.90479 | 36357 ft | 428 kts | 300° |
| 2026-04-29 13:51 | 58.72057 | -13.00007 | 36354 ft | 428 kts | 299° |
| 2026-04-29 13:52 | 58.74808 | -13.07926 | 36354 ft | 428 kts | 299° |
| 2026-04-29 13:52 | 58.78115 | -13.17474 | 36347 ft | 428 kts | 299° |
| 2026-04-29 13:53 | 58.81408 | -13.27028 | 36347 ft | 428 kts | 299° |
| 2026-04-29 13:53 | 58.84697 | -13.36604 | 36335 ft | 428 kts | 299° |
| 2026-04-29 13:54 | 58.87972 | -13.46187 | 36335 ft | 427 kts | 299° |
| 2026-04-29 13:54 | 58.91238 | -13.55793 | 36336 ft | 427 kts | 298° |
| 2026-04-29 13:55 | 58.94496 | -13.65406 | 36334 ft | 427 kts | 298° |
| 2026-04-29 13:55 | 58.97750 | -13.75026 | 36325 ft | 427 kts | 298° |
| 2026-04-29 13:56 | 59.00998 | -13.84665 | 36326 ft | 427 kts | 298° |
| 2026-04-29 13:56 | 59.04198 | -13.94261 | 36322 ft | 426 kts | 298° |
| 2026-04-29 13:57 | 59.07418 | -14.03927 | 36321 ft | 426 kts | 298° |
| 2026-04-29 13:57 | 59.10637 | -14.13596 | 36316 ft | 426 kts | 297° |
| 2026-04-29 13:58 | 59.13844 | -14.23276 | 36310 ft | 425 kts | 297° |
| 2026-04-29 13:58 | 59.17039 | -14.32967 | 36306 ft | 425 kts | 297° |
| 2026-04-29 13:59 | 59.20228 | -14.42674 | 36304 ft | 425 kts | 297° |
| 2026-04-29 13:59 | 59.23397 | -14.52394 | 36295 ft | 424 kts | 297° |
| 2026-04-29 14:00 | 59.26565 | -14.62118 | 36292 ft | 424 kts | 297° |
| 2026-04-29 14:00 | 59.29726 | -14.71851 | 36290 ft | 424 kts | 296° |
| 2026-04-29 14:01 | 59.32869 | -14.81609 | 36281 ft | 423 kts | 296° |
| 2026-04-29 14:01 | 59.35999 | -14.91370 | 36277 ft | 423 kts | 296° |
| 2026-04-29 14:02 | 59.39128 | -15.01141 | 36270 ft | 423 kts | 296° |
| 2026-04-29 14:02 | 59.42246 | -15.10913 | 36265 ft | 422 kts | 295° |
| 2026-04-29 14:03 | 59.45359 | -15.20706 | 36265 ft | 422 kts | 295° |
| 2026-04-29 14:03 | 59.48461 | -15.30504 | 36258 ft | 422 kts | 295° |
| 2026-04-29 14:04 | 59.51551 | -15.40331 | 36253 ft | 422 kts | 295° |
| 2026-04-29 14:04 | 59.54629 | -15.50166 | 36248 ft | 422 kts | 295° |
| 2026-04-29 14:05 | 59.57690 | -15.59938 | 36250 ft | 422 kts | 295° |
| 2026-04-29 14:05 | 59.60759 | -15.69797 | 36255 ft | 421 kts | 294° |
| 2026-04-29 14:06 | 59.63805 | -15.79676 | 36252 ft | 421 kts | 294° |
| 2026-04-29 14:06 | 59.66849 | -15.89560 | 36252 ft | 421 kts | 294° |
| 2026-04-29 14:07 | 59.69886 | -15.99447 | 36245 ft | 420 kts | 294° |
| 2026-04-29 14:07 | 59.72913 | -16.09353 | 36251 ft | 420 kts | 294° |
| 2026-04-29 14:08 | 59.75930 | -16.19277 | 36232 ft | 420 kts | 293° |
| 2026-04-29 14:08 | 59.78938 | -16.29207 | 36229 ft | 420 kts | 293° |
| 2026-04-29 14:09 | 59.81941 | -16.39144 | 36225 ft | 419 kts | 293° |
| 2026-04-29 14:09 | 59.84934 | -16.49095 | 36219 ft | 419 kts | 293° |
| 2026-04-29 14:10 | 59.87909 | -16.59060 | 36216 ft | 419 kts | 292° |
| 2026-04-29 14:10 | 59.90873 | -16.69040 | 36215 ft | 418 kts | 292° |
| 2026-04-29 14:11 | 59.93811 | -16.78961 | 36209 ft | 418 kts | 292° |
| 2026-04-29 14:11 | 59.96766 | -16.88964 | 36203 ft | 418 kts | 292° |
| 2026-04-29 14:12 | 59.99705 | -16.98989 | 36198 ft | 418 kts | 291° |
| 2026-04-29 14:12 | 60.02434 | -17.09194 | 36196 ft | 415 kts | 288° |
| 2026-04-29 14:13 | 60.04981 | -17.19529 | 36190 ft | 414 kts | 287° |
| 2026-04-29 14:13 | 60.07503 | -17.29889 | 36186 ft | 414 kts | 287° |
| 2026-04-29 14:14 | 60.10057 | -17.40244 | 36185 ft | 415 kts | 287° |
| 2026-04-29 14:14 | 60.12622 | -17.50608 | 36182 ft | 415 kts | 287° |
| 2026-04-29 14:15 | 60.15150 | -17.60919 | 36174 ft | 414 kts | 287° |
| 2026-04-29 14:15 | 60.17685 | -17.71308 | 36173 ft | 414 kts | 287° |
| 2026-04-29 14:16 | 60.20218 | -17.81701 | 36170 ft | 414 kts | 287° |
| 2026-04-29 14:16 | 60.22736 | -17.92109 | 36167 ft | 414 kts | 286° |
| 2026-04-29 14:17 | 60.25244 | -18.02522 | 36168 ft | 413 kts | 286° |
| 2026-04-29 14:17 | 60.27741 | -18.12932 | 36164 ft | 413 kts | 286° |
| 2026-04-29 14:18 | 60.30234 | -18.23349 | 36160 ft | 412 kts | 285° |
| 2026-04-29 14:18 | 60.32713 | -18.33774 | 36158 ft | 412 kts | 285° |
| 2026-04-29 14:19 | 60.35181 | -18.44195 | 36157 ft | 411 kts | 285° |
| 2026-04-29 14:19 | 60.37635 | -18.54635 | 36153 ft | 411 kts | 285° |
| 2026-04-29 14:20 | 60.40076 | -18.65081 | 36147 ft | 411 kts | 284° |
| 2026-04-29 14:20 | 60.42514 | -18.75541 | 36148 ft | 411 kts | 284° |
| 2026-04-29 14:21 | 60.44946 | -18.86031 | 36155 ft | 412 kts | 284° |
| 2026-04-29 14:21 | 60.47364 | -18.96533 | 36144 ft | 411 kts | 284° |
| 2026-04-29 14:22 | 60.49771 | -19.07029 | 36143 ft | 410 kts | 284° |
| 2026-04-29 14:22 | 60.52180 | -19.17520 | 36132 ft | 410 kts | 284° |
| 2026-04-29 14:23 | 60.54561 | -19.27958 | 36137 ft | 410 kts | 283° |
| 2026-04-29 14:23 | 60.56939 | -19.38486 | 36147 ft | 410 kts | 283° |
| 2026-04-29 14:24 | 60.59301 | -19.49021 | 36145 ft | 409 kts | 283° |
| 2026-04-29 14:24 | 60.61664 | -19.59571 | 36148 ft | 409 kts | 283° |
| 2026-04-29 14:25 | 60.64016 | -19.70119 | 36151 ft | 409 kts | 283° |
| 2026-04-29 14:25 | 60.66363 | -19.80684 | 36146 ft | 409 kts | 283° |
| 2026-04-29 14:26 | 60.68694 | -19.91253 | 36143 ft | 409 kts | 282° |
| 2026-04-29 14:26 | 60.71016 | -20.01834 | 36146 ft | 408 kts | 282° |
| 2026-04-29 14:27 | 60.73331 | -20.12427 | 36134 ft | 408 kts | 282° |
| 2026-04-29 14:28 | 60.76783 | -20.28327 | 36126 ft | 408 kts | 282° |
| 2026-04-29 14:28 | 60.79074 | -20.38942 | 36126 ft | 407 kts | 282° |
| 2026-04-29 14:29 | 60.81354 | -20.49560 | 36122 ft | 407 kts | 282° |
| 2026-04-29 14:29 | 60.83630 | -20.60197 | 36118 ft | 407 kts | 282° |
| 2026-04-29 14:30 | 60.85897 | -20.70841 | 36120 ft | 407 kts | 281° |
| 2026-04-29 14:30 | 60.88151 | -20.81494 | 36119 ft | 407 kts | 281° |
| 2026-04-29 14:31 | 60.90389 | -20.92163 | 36114 ft | 407 kts | 281° |
| 2026-04-29 14:31 | 60.92616 | -21.02837 | 36111 ft | 406 kts | 281° |
| 2026-04-29 14:32 | 60.94816 | -21.13453 | 36109 ft | 406 kts | 281° |
| 2026-04-29 14:32 | 60.97033 | -21.24140 | 36108 ft | 406 kts | 281° |
| 2026-04-29 14:33 | 60.99246 | -21.34838 | 36109 ft | 406 kts | 281° |
| 2026-04-29 14:33 | 61.01439 | -21.45548 | 36106 ft | 405 kts | 280° |
| 2026-04-29 14:34 | 61.03618 | -21.56267 | 36104 ft | 405 kts | 280° |
| 2026-04-29 14:34 | 61.05794 | -21.66997 | 36099 ft | 405 kts | 280° |
| 2026-04-29 14:35 | 61.07961 | -21.77730 | 36093 ft | 405 kts | 280° |
| 2026-04-29 14:35 | 61.10115 | -21.88479 | 36090 ft | 405 kts | 280° |
| 2026-04-29 14:36 | 61.12259 | -21.99240 | 36081 ft | 404 kts | 280° |
| 2026-04-29 14:36 | 61.14398 | -22.10007 | 36084 ft | 404 kts | 280° |
| 2026-04-29 14:37 | 61.16526 | -22.20782 | 36080 ft | 404 kts | 279° |
| 2026-04-29 14:37 | 61.18644 | -22.31576 | 36077 ft | 404 kts | 279° |
| 2026-04-29 14:38 | 61.20756 | -22.42386 | 36078 ft | 404 kts | 279° |
| 2026-04-29 14:38 | 61.22854 | -22.53205 | 36060 ft | 404 kts | 279° |
| 2026-04-29 14:39 | 61.24944 | -22.64052 | 36063 ft | 405 kts | 279° |
| 2026-04-29 14:39 | 61.27036 | -22.74904 | 36062 ft | 405 kts | 279° |
| 2026-04-29 14:40 | 61.29121 | -22.85787 | 36058 ft | 405 kts | 279° |
| 2026-04-29 14:40 | 61.31191 | -22.96686 | 36047 ft | 405 kts | 279° |
| 2026-04-29 14:41 | 61.33252 | -23.07610 | 36044 ft | 405 kts | 279° |
| 2026-04-29 14:41 | 61.35305 | -23.18554 | 36040 ft | 406 kts | 279° |
| 2026-04-29 14:42 | 61.37353 | -23.29534 | 36034 ft | 406 kts | 279° |
| 2026-04-29 14:42 | 61.39383 | -23.40459 | 36028 ft | 407 kts | 279° |
| 2026-04-29 14:43 | 61.41425 | -23.51495 | 36026 ft | 408 kts | 279° |
| 2026-04-29 14:43 | 61.43136 | -23.60771 | 36020 ft | 409 kts | 280° |
| 2026-04-29 14:44 | 61.45168 | -23.71866 | 36016 ft | 409 kts | 280° |
| 2026-04-29 14:44 | 61.47192 | -23.83001 | 35999 ft | 410 kts | 279° |
| 2026-04-29 14:45 | 61.49201 | -23.94167 | 36004 ft | 410 kts | 280° |
| 2026-04-29 14:45 | 61.51206 | -24.05368 | 35997 ft | 411 kts | 280° |
| 2026-04-29 14:46 | 61.53215 | -24.16596 | 36005 ft | 412 kts | 280° |
| 2026-04-29 14:46 | 61.55202 | -24.27771 | 35999 ft | 412 kts | 280° |
| 2026-04-29 14:47 | 61.57191 | -24.39047 | 35994 ft | 412 kts | 280° |
| 2026-04-29 14:47 | 61.59169 | -24.50349 | 35996 ft | 412 kts | 280° |
| 2026-04-29 14:48 | 61.61146 | -24.61659 | 35994 ft | 413 kts | 280° |
| 2026-04-29 14:48 | 61.63111 | -24.72996 | 35990 ft | 413 kts | 280° |
| 2026-04-29 14:49 | 61.65069 | -24.84341 | 35989 ft | 413 kts | 280° |
| 2026-04-29 14:49 | 61.67012 | -24.95706 | 35981 ft | 413 kts | 280° |
| 2026-04-29 14:50 | 61.68947 | -25.07088 | 35978 ft | 413 kts | 280° |
| 2026-04-29 14:50 | 61.70881 | -25.18493 | 35975 ft | 413 kts | 280° |
| 2026-04-29 14:51 | 61.72809 | -25.29908 | 35969 ft | 413 kts | 280° |
| 2026-04-29 14:51 | 61.74722 | -25.41347 | 35965 ft | 413 kts | 280° |
| 2026-04-29 14:52 | 61.76619 | -25.52816 | 35963 ft | 414 kts | 280° |
| 2026-04-29 14:52 | 61.78514 | -25.64295 | 35954 ft | 414 kts | 280° |
| 2026-04-29 14:53 | 61.80405 | -25.75796 | 35949 ft | 414 kts | 280° |
| 2026-04-29 14:53 | 61.82290 | -25.87322 | 35944 ft | 415 kts | 280° |
| 2026-04-29 14:54 | 61.84159 | -25.98877 | 35942 ft | 415 kts | 280° |
| 2026-04-29 14:54 | 61.86011 | -26.10448 | 35938 ft | 415 kts | 280° |
| 2026-04-29 14:55 | 61.87859 | -26.22050 | 35934 ft | 416 kts | 280° |
| 2026-04-29 14:55 | 61.89712 | -26.33664 | 35929 ft | 416 kts | 280° |
| 2026-04-29 14:56 | 61.91550 | -26.45305 | 35925 ft | 416 kts | 280° |
| 2026-04-29 14:56 | 61.93381 | -26.56967 | 35922 ft | 417 kts | 280° |
| 2026-04-29 14:57 | 61.95199 | -26.68651 | 35915 ft | 417 kts | 280° |
| 2026-04-29 14:57 | 61.97012 | -26.80361 | 35923 ft | 418 kts | 280° |
| 2026-04-29 14:57 | 61.97917 | -26.86255 | 36078 ft | 420 kts | 280° |
| 2026-04-29 14:58 | 61.98821 | -26.92175 | 36288 ft | 421 kts | 280° |
| 2026-04-29 14:58 | 61.99707 | -26.98021 | 36505 ft | 421 kts | 280° |
| 2026-04-29 14:58 | 62.00573 | -27.03978 | 36722 ft | 421 kts | 279° |
| 2026-04-29 14:58 | 62.01401 | -27.09949 | 36879 ft | 421 kts | 279° |
| 2026-04-29 14:59 | 62.02202 | -27.15946 | 36903 ft | 421 kts | 278° |
| 2026-04-29 14:59 | 62.03763 | -27.27954 | 36901 ft | 421 kts | 278° |
| 2026-04-29 15:00 | 62.05326 | -27.39976 | 36898 ft | 421 kts | 278° |
| 2026-04-29 15:00 | 62.06895 | -27.52005 | 36890 ft | 421 kts | 278° |
| 2026-04-29 15:01 | 62.08464 | -27.64044 | 36890 ft | 421 kts | 278° |
| 2026-04-29 15:01 | 62.10013 | -27.76103 | 36885 ft | 421 kts | 278° |
| 2026-04-29 15:02 | 62.11550 | -27.88170 | 36884 ft | 421 kts | 278° |
| 2026-04-29 15:02 | 62.13083 | -28.00256 | 36873 ft | 421 kts | 278° |
| 2026-04-29 15:03 | 62.14599 | -28.12347 | 36870 ft | 421 kts | 278° |
| 2026-04-29 15:03 | 62.16106 | -28.24459 | 36865 ft | 421 kts | 278° |
| 2026-04-29 15:04 | 62.17606 | -28.36588 | 36861 ft | 422 kts | 278° |
| 2026-04-29 15:04 | 62.19095 | -28.48728 | 36863 ft | 422 kts | 278° |
| 2026-04-29 15:05 | 62.20568 | -28.60885 | 36861 ft | 422 kts | 278° |
| 2026-04-29 15:05 | 62.22042 | -28.73050 | 36856 ft | 422 kts | 278° |
| 2026-04-29 15:06 | 62.23503 | -28.85227 | 36857 ft | 422 kts | 278° |
| 2026-04-29 15:06 | 62.24944 | -28.97430 | 36848 ft | 422 kts | 278° |
| 2026-04-29 15:07 | 62.26371 | -29.09560 | 36848 ft | 422 kts | 278° |
| 2026-04-29 15:07 | 62.27797 | -29.21784 | 36842 ft | 422 kts | 278° |
| 2026-04-29 15:08 | 62.29215 | -29.34019 | 36843 ft | 422 kts | 278° |
| 2026-04-29 15:08 | 62.30625 | -29.46262 | 36837 ft | 422 kts | 278° |
| 2026-04-29 15:09 | 62.32023 | -29.58519 | 36832 ft | 422 kts | 278° |
| 2026-04-29 15:09 | 62.33402 | -29.70786 | 36831 ft | 422 kts | 278° |
| 2026-04-29 15:10 | 62.34775 | -29.83071 | 36830 ft | 422 kts | 278° |
| 2026-04-29 15:10 | 62.36141 | -29.95353 | 36826 ft | 422 kts | 278° |
| 2026-04-29 15:11 | 62.37487 | -30.07654 | 36822 ft | 422 kts | 278° |
| 2026-04-29 15:11 | 62.38821 | -30.19960 | 36819 ft | 422 kts | 278° |
| 2026-04-29 15:12 | 62.40147 | -30.32276 | 36812 ft | 422 kts | 278° |
| 2026-04-29 15:12 | 62.41470 | -30.44600 | 36810 ft | 422 kts | 278° |
| 2026-04-29 15:13 | 62.42779 | -30.56931 | 36810 ft | 422 kts | 278° |
| 2026-04-29 15:13 | 62.44068 | -30.69279 | 36807 ft | 422 kts | 278° |
| 2026-04-29 15:14 | 62.45352 | -30.81644 | 36804 ft | 422 kts | 278° |
| 2026-04-29 15:14 | 62.46614 | -30.93929 | 36803 ft | 422 kts | 278° |
| 2026-04-29 15:15 | 62.47896 | -31.06393 | 36802 ft | 422 kts | 278° |
| 2026-04-29 15:15 | 62.49144 | -31.18702 | 36794 ft | 422 kts | 278° |
| 2026-04-29 15:16 | 62.50377 | -31.31104 | 36784 ft | 422 kts | 278° |
| 2026-04-29 15:16 | 62.51606 | -31.43511 | 36783 ft | 421 kts | 278° |
| 2026-04-29 15:17 | 62.52823 | -31.55910 | 36776 ft | 421 kts | 278° |
| 2026-04-29 15:17 | 62.54031 | -31.68318 | 36769 ft | 421 kts | 278° |
| 2026-04-29 15:18 | 62.55226 | -31.80728 | 36768 ft | 421 kts | 278° |
| 2026-04-29 15:18 | 62.56405 | -31.93155 | 36772 ft | 421 kts | 278° |
| 2026-04-29 15:19 | 62.57577 | -32.05600 | 36773 ft | 421 kts | 278° |
| 2026-04-29 15:19 | 62.58741 | -32.18052 | 36772 ft | 421 kts | 278° |
| 2026-04-29 15:20 | 62.59895 | -32.30523 | 36772 ft | 422 kts | 278° |
| 2026-04-29 15:20 | 62.61030 | -32.43016 | 36773 ft | 422 kts | 278° |
| 2026-04-29 15:21 | 62.62163 | -32.55511 | 36779 ft | 421 kts | 278° |
| 2026-04-29 15:21 | 62.63284 | -32.68001 | 36772 ft | 421 kts | 278° |
| 2026-04-29 15:22 | 62.64390 | -32.80498 | 36774 ft | 421 kts | 278° |
| 2026-04-29 15:22 | 62.65483 | -32.92995 | 36773 ft | 421 kts | 278° |
| 2026-04-29 15:23 | 62.66561 | -33.05499 | 36771 ft | 421 kts | 278° |
| 2026-04-29 15:23 | 62.67622 | -33.17923 | 36778 ft | 420 kts | 278° |
| 2026-04-29 15:24 | 62.68684 | -33.30436 | 36774 ft | 420 kts | 278° |
| 2026-04-29 15:24 | 62.69740 | -33.42951 | 36770 ft | 420 kts | 278° |
| 2026-04-29 15:25 | 62.70780 | -33.55481 | 36777 ft | 420 kts | 277° |
| 2026-04-29 15:25 | 62.71800 | -33.68020 | 36768 ft | 420 kts | 277° |
| 2026-04-29 15:26 | 62.72807 | -33.80566 | 36770 ft | 420 kts | 277° |
| 2026-04-29 15:26 | 62.73815 | -33.93130 | 36774 ft | 421 kts | 278° |
| 2026-04-29 15:27 | 62.74816 | -34.05709 | 36772 ft | 421 kts | 277° |
| 2026-04-29 15:27 | 62.75800 | -34.18306 | 36776 ft | 421 kts | 277° |
| 2026-04-29 15:28 | 62.76770 | -34.30918 | 36778 ft | 421 kts | 277° |
| 2026-04-29 15:28 | 62.77734 | -34.43532 | 36776 ft | 421 kts | 277° |
| 2026-04-29 15:29 | 62.78684 | -34.56147 | 36775 ft | 421 kts | 277° |
| 2026-04-29 15:30 | 62.80541 | -34.81383 | 36777 ft | 420 kts | 277° |
| 2026-04-29 15:30 | 62.81457 | -34.94002 | 36797 ft | 420 kts | 277° |
| 2026-04-29 15:31 | 62.82356 | -35.06529 | 36780 ft | 419 kts | 277° |
| 2026-04-29 15:31 | 62.83242 | -35.19126 | 36775 ft | 419 kts | 277° |
| 2026-04-29 15:32 | 62.84120 | -35.31721 | 36776 ft | 418 kts | 277° |
| 2026-04-29 15:32 | 62.84846 | -35.42265 | 36774 ft | 418 kts | 277° |
| 2026-04-29 15:33 | 62.85700 | -35.54850 | 36773 ft | 418 kts | 277° |
| 2026-04-29 15:33 | 62.86539 | -35.67453 | 36773 ft | 418 kts | 277° |
| 2026-04-29 15:34 | 62.87374 | -35.80059 | 36772 ft | 418 kts | 277° |
| 2026-04-29 15:34 | 62.88193 | -35.92598 | 36773 ft | 418 kts | 277° |
| 2026-04-29 15:35 | 62.89003 | -36.05319 | 36772 ft | 419 kts | 277° |
| 2026-04-29 15:35 | 62.89800 | -36.17965 | 36775 ft | 418 kts | 277° |
| 2026-04-29 15:36 | 62.90582 | -36.30523 | 36780 ft | 419 kts | 277° |
| 2026-04-29 15:36 | 62.91355 | -36.43185 | 36783 ft | 419 kts | 277° |
| 2026-04-29 15:37 | 62.92122 | -36.55837 | 36782 ft | 418 kts | 277° |
| 2026-04-29 15:37 | 62.92882 | -36.68479 | 36784 ft | 417 kts | 277° |
| 2026-04-29 15:38 | 62.93626 | -36.81104 | 36787 ft | 417 kts | 277° |
| 2026-04-29 15:38 | 62.94353 | -36.93714 | 36784 ft | 416 kts | 276° |
| 2026-04-29 15:39 | 62.95060 | -37.06312 | 36783 ft | 415 kts | 276° |
| 2026-04-29 15:39 | 62.95760 | -37.18900 | 36784 ft | 415 kts | 276° |
| 2026-04-29 15:40 | 62.96451 | -37.31478 | 36784 ft | 414 kts | 276° |
| 2026-04-29 15:40 | 62.97132 | -37.44053 | 36785 ft | 414 kts | 276° |
| 2026-04-29 15:41 | 62.97801 | -37.56637 | 36786 ft | 414 kts | 276° |
| 2026-04-29 15:41 | 62.98458 | -37.69231 | 36788 ft | 414 kts | 276° |
| 2026-04-29 15:42 | 62.99101 | -37.81829 | 36788 ft | 414 kts | 276° |
| 2026-04-29 15:42 | 62.99729 | -37.94429 | 36796 ft | 414 kts | 276° |
| 2026-04-29 15:43 | 63.01107 | -38.06694 | 36792 ft | 415 kts | 289° |
| 2026-04-29 15:43 | 63.03077 | -38.18628 | 36794 ft | 415 kts | 288° |
| 2026-04-29 15:44 | 63.05004 | -38.30516 | 36794 ft | 415 kts | 288° |
| 2026-04-29 15:44 | 63.06927 | -38.42506 | 36799 ft | 415 kts | 288° |
| 2026-04-29 15:45 | 63.08840 | -38.54499 | 36803 ft | 414 kts | 288° |
| 2026-04-29 15:45 | 63.10741 | -38.66490 | 36805 ft | 413 kts | 288° |
| 2026-04-29 15:46 | 63.12634 | -38.78477 | 36807 ft | 413 kts | 288° |
| 2026-04-29 15:46 | 63.14514 | -38.90455 | 36803 ft | 412 kts | 288° |
| 2026-04-29 15:47 | 63.16383 | -39.02424 | 36807 ft | 411 kts | 288° |
| 2026-04-29 15:47 | 63.18232 | -39.14382 | 36806 ft | 410 kts | 288° |
| 2026-04-29 15:48 | 63.20072 | -39.26352 | 36807 ft | 410 kts | 288° |
| 2026-04-29 15:48 | 63.21904 | -39.38318 | 36804 ft | 410 kts | 288° |
| 2026-04-29 15:49 | 63.23728 | -39.50293 | 36795 ft | 410 kts | 288° |
| 2026-04-29 15:49 | 63.25529 | -39.62285 | 36794 ft | 410 kts | 287° |
| 2026-04-29 15:50 | 63.27320 | -39.74288 | 36793 ft | 409 kts | 287° |
| 2026-04-29 15:50 | 63.29103 | -39.86298 | 36791 ft | 409 kts | 287° |
| 2026-04-29 15:51 | 63.30879 | -39.98314 | 36786 ft | 409 kts | 287° |
| 2026-04-29 15:51 | 63.32644 | -40.10338 | 36784 ft | 409 kts | 287° |
| 2026-04-29 15:52 | 63.34382 | -40.22300 | 36782 ft | 409 kts | 287° |
| 2026-04-29 15:52 | 63.36123 | -40.34367 | 36778 ft | 409 kts | 287° |
| 2026-04-29 15:53 | 63.37863 | -40.46450 | 36778 ft | 410 kts | 287° |
| 2026-04-29 15:53 | 63.39589 | -40.58566 | 36779 ft | 410 kts | 287° |
| 2026-04-29 15:54 | 63.41301 | -40.70708 | 36777 ft | 410 kts | 287° |
| 2026-04-29 15:54 | 63.43013 | -40.82879 | 36780 ft | 411 kts | 287° |
| 2026-04-29 15:55 | 63.44718 | -40.95078 | 36784 ft | 411 kts | 287° |
| 2026-04-29 15:55 | 63.46408 | -41.07305 | 36790 ft | 412 kts | 287° |
| 2026-04-29 15:56 | 63.48084 | -41.19551 | 36800 ft | 411 kts | 287° |
| 2026-04-29 15:56 | 63.49750 | -41.31792 | 36802 ft | 411 kts | 287° |
| 2026-04-29 15:57 | 63.51404 | -41.44042 | 36806 ft | 410 kts | 287° |
| 2026-04-29 15:57 | 63.53055 | -41.56295 | 36806 ft | 410 kts | 287° |
| 2026-04-29 15:58 | 63.54691 | -41.68536 | 36811 ft | 410 kts | 286° |
| 2026-04-29 15:58 | 63.56310 | -41.80787 | 36820 ft | 409 kts | 286° |
| 2026-04-29 15:59 | 63.57919 | -41.93015 | 36826 ft | 408 kts | 286° |
| 2026-04-29 15:59 | 63.59516 | -42.05234 | 36832 ft | 407 kts | 286° |
| 2026-04-29 16:00 | 63.61093 | -42.17452 | 36836 ft | 407 kts | 286° |
| 2026-04-29 16:00 | 63.62662 | -42.29670 | 36847 ft | 406 kts | 286° |
| 2026-04-29 16:01 | 63.64219 | -42.41873 | 36857 ft | 406 kts | 286° |
| 2026-04-29 16:01 | 63.65761 | -42.54056 | 36875 ft | 404 kts | 286° |
| 2026-04-29 16:02 | 63.67280 | -42.66232 | 36889 ft | 403 kts | 286° |
| 2026-04-29 16:02 | 63.68787 | -42.78361 | 36903 ft | 401 kts | 286° |
| 2026-04-29 16:03 | 63.70281 | -42.90446 | 36904 ft | 399 kts | 285° |
| 2026-04-29 16:03 | 63.71755 | -43.02504 | 36910 ft | 399 kts | 285° |
| 2026-04-29 16:04 | 63.73224 | -43.14559 | 36911 ft | 398 kts | 285° |
| 2026-04-29 16:04 | 63.74669 | -43.26539 | 36908 ft | 398 kts | 285° |
| 2026-04-29 16:05 | 63.76112 | -43.38621 | 36907 ft | 398 kts | 285° |
| 2026-04-29 16:05 | 63.77545 | -43.50714 | 36919 ft | 398 kts | 285° |
| 2026-04-29 16:06 | 63.78977 | -43.62830 | 36919 ft | 399 kts | 285° |
| 2026-04-29 16:06 | 63.80389 | -43.74985 | 36932 ft | 400 kts | 284° |
| 2026-04-29 16:07 | 63.81800 | -43.87172 | 36933 ft | 400 kts | 284° |
| 2026-04-29 16:07 | 63.83206 | -43.99371 | 36946 ft | 400 kts | 284° |
| 2026-04-29 16:08 | 63.84601 | -44.11601 | 36949 ft | 401 kts | 284° |
| 2026-04-29 16:08 | 63.85983 | -44.23857 | 36966 ft | 401 kts | 284° |
| 2026-04-29 16:09 | 63.87358 | -44.36140 | 36974 ft | 402 kts | 284° |
| 2026-04-29 16:09 | 63.88728 | -44.48450 | 36992 ft | 403 kts | 284° |
| 2026-04-29 16:10 | 63.90085 | -44.60786 | 36999 ft | 403 kts | 284° |
| 2026-04-29 16:10 | 63.91432 | -44.73155 | 37014 ft | 403 kts | 284° |
| 2026-04-29 16:11 | 63.92769 | -44.85538 | 37024 ft | 404 kts | 283° |
| 2026-04-29 16:11 | 63.94098 | -44.97935 | 37035 ft | 404 kts | 283° |
| 2026-04-29 16:12 | 63.95420 | -45.10347 | 37037 ft | 404 kts | 283° |
| 2026-04-29 16:12 | 63.96732 | -45.22783 | 37053 ft | 404 kts | 283° |
| 2026-04-29 16:13 | 63.98017 | -45.35158 | 37056 ft | 405 kts | 283° |
| 2026-04-29 16:13 | 63.99302 | -45.47634 | 37065 ft | 405 kts | 283° |
| 2026-04-29 16:14 | 64.00581 | -45.60116 | 37068 ft | 405 kts | 283° |
| 2026-04-29 16:14 | 64.01854 | -45.72645 | 37262 ft | 407 kts | 283° |
| 2026-04-29 16:14 | 64.02487 | -45.78939 | 37463 ft | 408 kts | 283° |
| 2026-04-29 16:15 | 64.03121 | -45.85255 | 37668 ft | 408 kts | 282° |
| 2026-04-29 16:15 | 64.03754 | -45.91576 | 37863 ft | 409 kts | 282° |
| 2026-04-29 16:15 | 64.04381 | -45.97908 | 38040 ft | 410 kts | 282° |
| 2026-04-29 16:16 | 64.05629 | -46.10612 | 38075 ft | 411 kts | 282° |
| 2026-04-29 16:16 | 64.06877 | -46.23347 | 38076 ft | 410 kts | 282° |
| 2026-04-29 16:17 | 64.08110 | -46.36081 | 38073 ft | 411 kts | 282° |
| 2026-04-29 16:17 | 64.09332 | -46.48835 | 38082 ft | 410 kts | 282° |
| 2026-04-29 16:18 | 64.10534 | -46.61602 | 38079 ft | 411 kts | 282° |
| 2026-04-29 16:18 | 64.11732 | -46.74374 | 38086 ft | 411 kts | 282° |
| 2026-04-29 16:19 | 64.12920 | -46.87160 | 38083 ft | 411 kts | 282° |
| 2026-04-29 16:19 | 64.13895 | -46.97798 | 38084 ft | 411 kts | 282° |
| 2026-04-29 16:20 | 64.15063 | -47.10609 | 38083 ft | 411 kts | 282° |
| 2026-04-29 16:20 | 64.16221 | -47.23428 | 38077 ft | 411 kts | 281° |
| 2026-04-29 16:21 | 64.17362 | -47.36262 | 38079 ft | 411 kts | 281° |
| 2026-04-29 16:21 | 64.18497 | -47.49110 | 38074 ft | 411 kts | 281° |
| 2026-04-29 16:22 | 64.19622 | -47.61973 | 38074 ft | 411 kts | 281° |
| 2026-04-29 16:22 | 64.20731 | -47.74851 | 38066 ft | 411 kts | 281° |
| 2026-04-29 16:23 | 64.21832 | -47.87744 | 38068 ft | 412 kts | 281° |
| 2026-04-29 16:23 | 64.22924 | -48.00655 | 38067 ft | 412 kts | 281° |
| 2026-04-29 16:24 | 64.23999 | -48.13584 | 37829 ft | 412 kts | 281° |
| 2026-04-29 16:24 | 64.24533 | -48.20043 | 37575 ft | 410 kts | 281° |
| 2026-04-29 16:24 | 64.25058 | -48.26446 | 37218 ft | 405 kts | 281° |
| 2026-04-29 16:24 | 64.25576 | -48.32774 | 36761 ft | 401 kts | 281° |
| 2026-04-29 16:25 | 64.26084 | -48.39050 | 36301 ft | 397 kts | 281° |
| 2026-04-29 16:25 | 64.26588 | -48.45282 | 35824 ft | 394 kts | 281° |
| 2026-04-29 16:25 | 64.27088 | -48.51458 | 35350 ft | 392 kts | 281° |
| 2026-04-29 16:25 | 64.27587 | -48.57606 | 34854 ft | 390 kts | 281° |
| 2026-04-29 16:26 | 64.28078 | -48.63724 | 34353 ft | 388 kts | 281° |
| 2026-04-29 16:26 | 64.28561 | -48.69819 | 33799 ft | 387 kts | 281° |
| 2026-04-29 16:26 | 64.29036 | -48.75889 | 33269 ft | 383 kts | 280° |
| 2026-04-29 16:26 | 64.29504 | -48.81902 | 32750 ft | 380 kts | 280° |
| 2026-04-29 16:27 | 64.29960 | -48.87786 | 32227 ft | 377 kts | 280° |
| 2026-04-29 16:27 | 64.30417 | -48.93705 | 31693 ft | 374 kts | 280° |
| 2026-04-29 16:27 | 64.30867 | -48.99584 | 31163 ft | 371 kts | 280° |
| 2026-04-29 16:27 | 64.31312 | -49.05419 | 30637 ft | 369 kts | 280° |
| 2026-04-29 16:28 | 64.31755 | -49.11221 | 30101 ft | 366 kts | 280° |
| 2026-04-29 16:28 | 64.32193 | -49.16975 | 29521 ft | 362 kts | 280° |
| 2026-04-29 16:28 | 64.32620 | -49.22657 | 29021 ft | 357 kts | 280° |
| 2026-04-29 16:28 | 64.33040 | -49.28263 | 28517 ft | 353 kts | 280° |
| 2026-04-29 16:29 | 64.33454 | -49.33812 | 28016 ft | 350 kts | 280° |
| 2026-04-29 16:29 | 64.33865 | -49.39335 | 27521 ft | 348 kts | 280° |
| 2026-04-29 16:29 | 64.34270 | -49.44824 | 27030 ft | 346 kts | 279° |
| 2026-04-29 16:29 | 64.34670 | -49.50293 | 26542 ft | 345 kts | 279° |
| 2026-04-29 16:30 | 64.35066 | -49.55745 | 26065 ft | 344 kts | 279° |
| 2026-04-29 16:30 | 64.35459 | -49.61184 | 25587 ft | 343 kts | 279° |
| 2026-04-29 16:30 | 64.35849 | -49.66607 | 25130 ft | 342 kts | 279° |
| 2026-04-29 16:30 | 64.36236 | -49.72014 | 24657 ft | 342 kts | 279° |
| 2026-04-29 16:31 | 64.36623 | -49.77414 | 24225 ft | 340 kts | 279° |
| 2026-04-29 16:31 | 64.37005 | -49.82802 | 23797 ft | 339 kts | 279° |
| 2026-04-29 16:31 | 64.37382 | -49.88172 | 23321 ft | 338 kts | 279° |
| 2026-04-29 16:31 | 64.37754 | -49.93527 | 22890 ft | 337 kts | 279° |
| 2026-04-29 16:32 | 64.38084 | -49.98871 | 22474 ft | 335 kts | 274° |
| 2026-04-29 16:32 | 64.37998 | -50.04228 | 22000 ft | 334 kts | 262° |
| 2026-04-29 16:32 | 64.37406 | -50.09398 | 21540 ft | 333 kts | 250° |
| 2026-04-29 16:32 | 64.36360 | -50.14158 | 21062 ft | 333 kts | 240° |
| 2026-04-29 16:33 | 64.33970 | -50.23276 | 20094 ft | 331 kts | 240° |
| 2026-04-29 16:33 | 64.32780 | -50.27808 | 19605 ft | 330 kts | 240° |
| 2026-04-29 16:33 | 64.31590 | -50.32334 | 19110 ft | 330 kts | 240° |
| 2026-04-29 16:34 | 64.30396 | -50.36862 | 18614 ft | 331 kts | 240° |
| 2026-04-29 16:34 | 64.29197 | -50.41390 | 18065 ft | 331 kts | 240° |
| 2026-04-29 16:34 | 64.27996 | -50.45918 | 17548 ft | 331 kts | 240° |
| 2026-04-29 16:34 | 64.26801 | -50.50427 | 17062 ft | 329 kts | 240° |
| 2026-04-29 16:35 | 64.25611 | -50.54909 | 16568 ft | 328 kts | 241° |
| 2026-04-29 16:35 | 64.24425 | -50.59369 | 16089 ft | 326 kts | 241° |
| 2026-04-29 16:35 | 64.23244 | -50.63812 | 15602 ft | 325 kts | 241° |
| 2026-04-29 16:35 | 64.22064 | -50.68241 | 15133 ft | 325 kts | 241° |
| 2026-04-29 16:36 | 64.20883 | -50.72651 | 14660 ft | 324 kts | 242° |
| 2026-04-29 16:36 | 64.19700 | -50.77062 | 14192 ft | 324 kts | 242° |
| 2026-04-29 16:36 | 64.18520 | -50.81449 | 13693 ft | 323 kts | 242° |
| 2026-04-29 16:36 | 64.17338 | -50.85818 | 13189 ft | 321 kts | 242° |
| 2026-04-29 16:37 | 64.16169 | -50.90148 | 12713 ft | 318 kts | 242° |
| 2026-04-29 16:37 | 64.15020 | -50.94396 | 12231 ft | 317 kts | 242° |
| 2026-04-29 16:37 | 64.13862 | -50.98666 | 11761 ft | 314 kts | 242° |
| 2026-04-29 16:37 | 64.13083 | -51.01532 | 11446 ft | 314 kts | 242° |
| 2026-04-29 16:38 | 64.11546 | -51.07193 | 10802 ft | 313 kts | 242° |
| 2026-04-29 16:38 | 64.10415 | -51.11351 | 10383 ft | 310 kts | 242° |
| 2026-04-29 16:38 | 64.09280 | -51.15506 | 10244 ft | 298 kts | 242° |
| 2026-04-29 16:38 | 64.08211 | -51.19398 | 10094 ft | 288 kts | 242° |
| 2026-04-29 16:39 | 64.07160 | -51.23223 | 9995 ft | 282 kts | 242° |
| 2026-04-29 16:39 | 64.06121 | -51.27014 | 9888 ft | 283 kts | 242° |
| 2026-04-29 16:39 | 64.05074 | -51.30831 | 9411 ft | 282 kts | 242° |
| 2026-04-29 16:39 | 64.04023 | -51.34650 | 9000 ft | 279 kts | 242° |
| 2026-04-29 16:40 | 64.02998 | -51.38371 | 8598 ft | 275 kts | 242° |
| 2026-04-29 16:40 | 64.02011 | -51.41942 | 8221 ft | 264 kts | 241° |
| 2026-04-29 16:40 | 64.01051 | -51.45395 | 7845 ft | 252 kts | 241° |
| 2026-04-29 16:40 | 64.00131 | -51.48698 | 7502 ft | 242 kts | 241° |
| 2026-04-29 16:41 | 63.99252 | -51.51866 | 7167 ft | 232 kts | 241° |
| 2026-04-29 16:41 | 63.98401 | -51.54943 | 6843 ft | 228 kts | 241° |
| 2026-04-29 16:41 | 63.97665 | -51.58093 | 6522 ft | 223 kts | 255° |
| 2026-04-29 16:41 | 63.97401 | -51.61518 | 6182 ft | 218 kts | 274° |
| 2026-04-29 16:42 | 63.97619 | -51.64875 | 5846 ft | 213 kts | 291° |
| 2026-04-29 16:42 | 63.98078 | -51.68076 | 5517 ft | 212 kts | 291° |
| 2026-04-29 16:42 | 63.98527 | -51.71270 | 5192 ft | 212 kts | 290° |
| 2026-04-29 16:42 | 63.98967 | -51.74446 | 4872 ft | 207 kts | 290° |
| 2026-04-29 16:43 | 63.99419 | -51.77488 | 4556 ft | 198 kts | 300° |
| 2026-04-29 16:43 | 64.00310 | -51.79734 | 4249 ft | 190 kts | 332° |
| 2026-04-29 16:43 | 64.01543 | -51.80462 | 3959 ft | 182 kts | 2° |
| 2026-04-29 16:43 | 64.02756 | -51.79805 | 3720 ft | 176 kts | 16° |
| 2026-04-29 16:44 | 64.03895 | -51.78974 | 3603 ft | 170 kts | 15° |
| 2026-04-29 16:44 | 64.05024 | -51.78155 | 3420 ft | 170 kts | 16° |
| 2026-04-29 16:44 | 64.06150 | -51.77340 | 3178 ft | 169 kts | 16° |
| 2026-04-29 16:44 | 64.07268 | -51.76531 | 2927 ft | 168 kts | 16° |
| 2026-04-29 16:45 | 64.08378 | -51.75726 | 2663 ft | 166 kts | 16° |
| 2026-04-29 16:45 | 64.09437 | -51.74956 | 2416 ft | 152 kts | 15° |
| 2026-04-29 16:45 | 64.10409 | -51.74251 | 2182 ft | 141 kts | 15° |
| 2026-04-29 16:45 | 64.11316 | -51.73593 | 1967 ft | 134 kts | 15° |
| 2026-04-29 16:46 | 64.12199 | -51.72953 | 1776 ft | 133 kts | 15° |
| 2026-04-29 16:46 | 64.13088 | -51.72307 | 1568 ft | 135 kts | 15° |
| 2026-04-29 16:46 | 64.13980 | -51.71659 | 1289 ft | 133 kts | 15° |
| 2026-04-29 16:46 | 64.14843 | -51.71030 | 1047 ft | 131 kts | 16° |
| 2026-04-29 16:47 | 64.15712 | -51.70402 | 899 ft | 131 kts | 17° |
| 2026-04-29 16:47 | 64.16582 | -51.69755 | 707 ft | 132 kts | 18° |
| 2026-04-29 16:47 | 64.17459 | -51.69147 | 462 ft | 131 kts | 19° |
| 2026-04-29 16:47 | 64.18313 | -51.68506 | 266 ft | 128 kts | 19° |
| 2026-04-29 16:48 | 64.19109 | -51.67931 | 499 ft | 125 kts | 19° |
| 2026-04-29 16:48 | 64.19992 | -51.67235 | 1457 ft | 143 kts | 18° |
| 2026-04-29 16:48 | 64.20940 | -51.66349 | 2275 ft | 154 kts | 18° |
| 2026-04-29 16:48 | 64.22079 | -51.65977 | 2697 ft | 175 kts | 358° |
| 2026-04-29 16:49 | 64.23356 | -51.66115 | 3233 ft | 189 kts | 356° |
| 2026-04-29 16:49 | 64.24689 | -51.66274 | 4027 ft | 194 kts | 356° |
| 2026-04-29 16:49 | 64.26042 | -51.66436 | 4993 ft | 196 kts | 356° |
| 2026-04-29 16:49 | 64.27409 | -51.66602 | 5933 ft | 198 kts | 356° |
| 2026-04-29 16:50 | 64.28791 | -51.66773 | 6849 ft | 200 kts | 356° |
| 2026-04-29 16:50 | 64.30182 | -51.66944 | 7774 ft | 200 kts | 355° |
| 2026-04-29 16:50 | 64.31574 | -51.67114 | 8740 ft | 200 kts | 355° |
| 2026-04-29 16:50 | 64.32966 | -51.67283 | 9738 ft | 200 kts | 355° |
| 2026-04-29 16:51 | 64.34414 | -51.67463 | 10004 ft | 217 kts | 355° |
| 2026-04-29 16:51 | 64.36038 | -51.67678 | 10009 ft | 245 kts | 355° |
| 2026-04-29 16:51 | 64.37768 | -51.67907 | 10018 ft | 251 kts | 355° |
| 2026-04-29 16:51 | 64.39519 | -51.68130 | 10020 ft | 252 kts | 355° |
| 2026-04-29 16:52 | 64.41275 | -51.68348 | 10019 ft | 253 kts | 355° |
| 2026-04-29 16:52 | 64.43029 | -51.68246 | 10023 ft | 255 kts | 12° |
| 2026-04-29 16:52 | 64.44537 | -51.66047 | 10030 ft | 266 kts | 45° |
| 2026-04-29 16:52 | 64.45452 | -51.62249 | 10025 ft | 277 kts | 68° |
| 2026-04-29 16:53 | 64.45617 | -51.57814 | 10025 ft | 288 kts | 94° |
| 2026-04-29 16:53 | 64.44841 | -51.53490 | 10032 ft | 299 kts | 124° |
| 2026-04-29 16:53 | 64.43219 | -51.50486 | 10022 ft | 304 kts | 156° |
| 2026-04-29 16:53 | 64.41157 | -51.49650 | 10025 ft | 303 kts | 186° |
| 2026-04-29 16:54 | 64.39057 | -51.50133 | 10013 ft | 304 kts | 188° |
| 2026-04-29 16:54 | 64.36952 | -51.50662 | 10005 ft | 304 kts | 188° |
| 2026-04-29 16:54 | 64.34844 | -51.51190 | 10012 ft | 305 kts | 188° |
| 2026-04-29 16:54 | 64.32734 | -51.51712 | 10011 ft | 305 kts | 188° |
| 2026-04-29 16:55 | 64.30621 | -51.52230 | 10009 ft | 306 kts | 188° |
| 2026-04-29 16:55 | 64.28504 | -51.52743 | 10006 ft | 305 kts | 188° |
| 2026-04-29 16:55 | 64.26389 | -51.53249 | 10001 ft | 306 kts | 188° |
| 2026-04-29 16:55 | 64.24273 | -51.53753 | 10005 ft | 307 kts | 188° |
| 2026-04-29 16:56 | 64.22148 | -51.54253 | 10000 ft | 307 kts | 188° |
| 2026-04-29 16:56 | 64.20021 | -51.54751 | 9997 ft | 307 kts | 188° |
| 2026-04-29 16:56 | 64.17892 | -51.55250 | 9926 ft | 309 kts | 188° |
| 2026-04-29 16:56 | 64.15755 | -51.55757 | 9450 ft | 306 kts | 188° |
| 2026-04-29 16:57 | 64.13663 | -51.56250 | 8971 ft | 297 kts | 188° |
| 2026-04-29 16:57 | 64.11654 | -51.56722 | 8623 ft | 284 kts | 188° |
| 2026-04-29 16:57 | 64.09726 | -51.57180 | 8306 ft | 277 kts | 188° |
| 2026-04-29 16:57 | 64.07812 | -51.57640 | 7975 ft | 275 kts | 188° |
| 2026-04-29 16:58 | 64.05920 | -51.58090 | 7651 ft | 272 kts | 188° |
| 2026-04-29 16:58 | 64.04058 | -51.58526 | 7329 ft | 263 kts | 188° |
| 2026-04-29 16:58 | 64.02278 | -51.58936 | 7042 ft | 251 kts | 188° |
| 2026-04-29 16:58 | 64.00564 | -51.59331 | 6742 ft | 245 kts | 188° |
| 2026-04-29 16:59 | 63.98921 | -51.60180 | 6409 ft | 238 kts | 214° |
| 2026-04-29 16:59 | 63.97883 | -51.62788 | 6119 ft | 215 kts | 255° |
| 2026-04-29 16:59 | 63.97768 | -51.65952 | 5870 ft | 194 kts | 289° |
| 2026-04-29 16:59 | 63.98163 | -51.68862 | 5502 ft | 194 kts | 292° |
| 2026-04-29 17:00 | 63.98574 | -51.71767 | 5154 ft | 191 kts | 293° |
| 2026-04-29 17:00 | 63.98975 | -51.74613 | 4840 ft | 187 kts | 292° |
| 2026-04-29 17:00 | 63.99366 | -51.77406 | 4539 ft | 183 kts | 294° |
| 2026-04-29 17:00 | 64.00018 | -51.79727 | 4246 ft | 170 kts | 326° |
| 2026-04-29 17:01 | 64.01056 | -51.80683 | 4015 ft | 163 kts | 355° |
| 2026-04-29 17:01 | 64.02149 | -51.80038 | 3781 ft | 165 kts | 18° |
| 2026-04-29 17:01 | 64.03243 | -51.79317 | 3517 ft | 164 kts | 12° |
| 2026-04-29 17:01 | 64.04334 | -51.78603 | 3273 ft | 163 kts | 13° |
| 2026-04-29 17:02 | 64.05420 | -51.77848 | 3029 ft | 163 kts | 14° |
| 2026-04-29 17:02 | 64.06502 | -51.77077 | 2780 ft | 163 kts | 14° |
| 2026-04-29 17:02 | 64.07564 | -51.76312 | 2572 ft | 153 kts | 14° |
| 2026-04-29 17:02 | 64.08548 | -51.75599 | 2509 ft | 146 kts | 14° |
| 2026-04-29 17:03 | 64.09503 | -51.74908 | 2375 ft | 143 kts | 14° |
| 2026-04-29 17:03 | 64.10446 | -51.74225 | 2181 ft | 141 kts | 14° |
| 2026-04-29 17:03 | 64.11349 | -51.73569 | 1976 ft | 133 kts | 13° |
| 2026-04-29 17:03 | 64.12221 | -51.72936 | 1796 ft | 131 kts | 14° |
| 2026-04-29 17:04 | 64.13088 | -51.72307 | 1601 ft | 130 kts | 13° |
| 2026-04-29 17:04 | 64.13955 | -51.71698 | 1282 ft | 130 kts | 14° |
| 2026-04-29 17:04 | 64.14814 | -51.71051 | 1058 ft | 130 kts | 15° |
| 2026-04-29 17:04 | 64.15684 | -51.70435 | 902 ft | 131 kts | 16° |
| 2026-04-29 17:05 | 64.16551 | -51.69798 | 755 ft | 131 kts | 18° |
| 2026-04-29 17:05 | 64.17428 | -51.69163 | 480 ft | 132 kts | 19° |
| 2026-04-29 17:05 | 64.18293 | -51.68515 | 266 ft | 130 kts | 21° |
| 2026-04-29 17:05 | 64.18919 | -51.68044 | 279 ft | 25 kts | 21° |
| 2026-04-29 17:06 | 64.18946 | -51.67970 | 281 ft | 3 kts | 69° |
| 2026-04-29 17:06 | 64.18977 | -51.67900 | 286 ft | 12 kts | 28° |
| 2026-04-29 17:06 | 64.19071 | -51.67824 | 282 ft | 14 kts | 28° |
| 2026-04-29 17:06 | 64.19084 | -51.67719 | 282 ft | 11 kts | 109° |
| 2026-04-29 17:07 | 64.19068 | -51.67624 | 279 ft | 0 kts | 110° |
| 2026-04-29 17:07 | 64.19064 | -51.67590 | 277 ft | 9 kts | 104° |
| 2026-04-29 17:07 | 64.19096 | -51.67440 | 274 ft | 7 kts | 32° |
| 2026-04-29 17:08 | 64.19124 | -51.67404 | 277 ft | 3 kts | 39° |
| 2026-04-29 17:08 | 64.19134 | -51.67369 | 276 ft | 2 kts | 79° |
| 2026-04-29 17:08 | 64.19128 | -51.67349 | 277 ft | 3 kts | 119° |
| 2026-04-29 17:08 | 64.19107 | -51.67328 | 276 ft | 4 kts | 164° |
| 2026-04-29 17:09 | 64.19106 | -51.67327 | 276 ft | 0 kts | 164° |